<?xml version="1.0" encoding="utf-8"?>
<gpx xmlns:xsi="http://www.w3.org/2001/XMLSchema-instance" xmlns:xsd="http://www.w3.org/2001/XMLSchema" version="1.1" creator="Shapelink.com" xmlns="http://www.topografix.com/GPX/1/1" xmlns:gpxtpx="http://www.garmin.com/xmlschemas/TrackPointExtension/v1">
  <metadata>
    <name>Löpning 8.00 km, 2019-08-07</name>
    <desc></desc>
    <author><name>Bengt Norberg</name></author> 
    <time>2019-08-07T17:01:52Z</time>
  </metadata>
  <trk>
    <name>Löpning 8.00 km, 2019-08-07</name>
    <trkseg>
      <trkpt lat="59.368568630539" lon="18.054628190334">
        <ele>0</ele>
        <time>2019-08-07T17:01:52Z</time>
      </trkpt>
      <trkpt lat="59.368464359703" lon="18.054977631745">
        <ele>0</ele>
        <time>2019-08-07T17:01:58Z</time>
      </trkpt>
      <trkpt lat="59.368485398272" lon="18.055077208717">
        <ele>0</ele>
        <time>2019-08-07T17:01:59Z</time>
      </trkpt>
      <trkpt lat="59.368292279296" lon="18.055321541102">
        <ele>8.8</ele>
        <time>2019-08-07T17:02:04Z</time>
      </trkpt>
      <trkpt lat="59.368285741414" lon="18.055311985736">
        <ele>16.8</ele>
        <time>2019-08-07T17:02:05Z</time>
      </trkpt>
      <trkpt lat="59.368163365674" lon="18.055440396444">
        <ele>20.6</ele>
        <time>2019-08-07T17:02:10Z</time>
      </trkpt>
      <trkpt lat="59.368054484793" lon="18.055646507365">
        <ele>20.4</ele>
        <time>2019-08-07T17:02:12Z</time>
      </trkpt>
      <trkpt lat="59.367894558141" lon="18.055658158206">
        <ele>20</ele>
        <time>2019-08-07T17:02:17Z</time>
      </trkpt>
      <trkpt lat="59.367706971219" lon="18.055735439324">
        <ele>25.4</ele>
        <time>2019-08-07T17:02:23Z</time>
      </trkpt>
      <trkpt lat="59.367669252669" lon="18.055806098741">
        <ele>24.2</ele>
        <time>2019-08-07T17:02:24Z</time>
      </trkpt>
      <trkpt lat="59.367548553309" lon="18.055878685995">
        <ele>23.8</ele>
        <time>2019-08-07T17:02:29Z</time>
      </trkpt>
      <trkpt lat="59.367365995527" lon="18.056172806866">
        <ele>16.2</ele>
        <time>2019-08-07T17:02:35Z</time>
      </trkpt>
      <trkpt lat="59.367197100242" lon="18.056304821791">
        <ele>14</ele>
        <time>2019-08-07T17:02:42Z</time>
      </trkpt>
      <trkpt lat="59.367108335921" lon="18.056606989286">
        <ele>12.8</ele>
        <time>2019-08-07T17:02:49Z</time>
      </trkpt>
      <trkpt lat="59.367101295125" lon="18.056998424016">
        <ele>8.8</ele>
        <time>2019-08-07T17:02:58Z</time>
      </trkpt>
      <trkpt lat="59.366984954353" lon="18.057374938964">
        <ele>0</ele>
        <time>2019-08-07T17:03:10Z</time>
      </trkpt>
      <trkpt lat="59.366938099532" lon="18.057773749766">
        <ele>0</ele>
        <time>2019-08-07T17:03:20Z</time>
      </trkpt>
      <trkpt lat="59.36691479785" lon="18.05815143818">
        <ele>0</ele>
        <time>2019-08-07T17:03:28Z</time>
      </trkpt>
      <trkpt lat="59.366920832818" lon="18.05850263979">
        <ele>0</ele>
        <time>2019-08-07T17:03:36Z</time>
      </trkpt>
      <trkpt lat="59.36688294663" lon="18.058853925219">
        <ele>0</ele>
        <time>2019-08-07T17:03:43Z</time>
      </trkpt>
      <trkpt lat="59.366889903607" lon="18.059217532041">
        <ele>0</ele>
        <time>2019-08-07T17:03:50Z</time>
      </trkpt>
      <trkpt lat="59.36689132853" lon="18.0595998305">
        <ele>3.6</ele>
        <time>2019-08-07T17:03:58Z</time>
      </trkpt>
      <trkpt lat="59.366894848928" lon="18.059969137014">
        <ele>6.4</ele>
        <time>2019-08-07T17:04:06Z</time>
      </trkpt>
      <trkpt lat="59.366891244711" lon="18.060331067456">
        <ele>12.4</ele>
        <time>2019-08-07T17:04:14Z</time>
      </trkpt>
      <trkpt lat="59.366877163119" lon="18.060690986242">
        <ele>17.6</ele>
        <time>2019-08-07T17:04:21Z</time>
      </trkpt>
      <trkpt lat="59.366850592496" lon="18.061063645516">
        <ele>20.2</ele>
        <time>2019-08-07T17:04:29Z</time>
      </trkpt>
      <trkpt lat="59.366731066602" lon="18.061345277356">
        <ele>21.2</ele>
        <time>2019-08-07T17:04:36Z</time>
      </trkpt>
      <trkpt lat="59.366571559045" lon="18.061519704695">
        <ele>22.2</ele>
        <time>2019-08-07T17:04:43Z</time>
      </trkpt>
      <trkpt lat="59.366381960467" lon="18.061571504837">
        <ele>24.4</ele>
        <time>2019-08-07T17:04:51Z</time>
      </trkpt>
      <trkpt lat="59.366211388802" lon="18.061619365486">
        <ele>27</ele>
        <time>2019-08-07T17:05:00Z</time>
      </trkpt>
      <trkpt lat="59.366026567907" lon="18.061711817843">
        <ele>28.6</ele>
        <time>2019-08-07T17:05:07Z</time>
      </trkpt>
      <trkpt lat="59.36586035483" lon="18.061839557999">
        <ele>27.4</ele>
        <time>2019-08-07T17:05:15Z</time>
      </trkpt>
      <trkpt lat="59.365698835617" lon="18.062023289247">
        <ele>29.2</ele>
        <time>2019-08-07T17:05:22Z</time>
      </trkpt>
      <trkpt lat="59.36554519539" lon="18.062244906683">
        <ele>32</ele>
        <time>2019-08-07T17:05:28Z</time>
      </trkpt>
      <trkpt lat="59.365368085843" lon="18.062380525825">
        <ele>29.4</ele>
        <time>2019-08-07T17:05:34Z</time>
      </trkpt>
      <trkpt lat="59.365178235808" lon="18.062453532174">
        <ele>26</ele>
        <time>2019-08-07T17:05:41Z</time>
      </trkpt>
      <trkpt lat="59.365000288071" lon="18.062415897443">
        <ele>25.4</ele>
        <time>2019-08-07T17:05:48Z</time>
      </trkpt>
      <trkpt lat="59.364970280869" lon="18.062432409786">
        <ele>24.6</ele>
        <time>2019-08-07T17:05:50Z</time>
      </trkpt>
      <trkpt lat="59.36489978909" lon="18.062701217319">
        <ele>16.8</ele>
        <time>2019-08-07T17:05:55Z</time>
      </trkpt>
      <trkpt lat="59.36483776303" lon="18.063065578512">
        <ele>16</ele>
        <time>2019-08-07T17:06:03Z</time>
      </trkpt>
      <trkpt lat="59.364763583215" lon="18.063424742927">
        <ele>15.2</ele>
        <time>2019-08-07T17:06:11Z</time>
      </trkpt>
      <trkpt lat="59.364695941282" lon="18.063772172682">
        <ele>13</ele>
        <time>2019-08-07T17:06:18Z</time>
      </trkpt>
      <trkpt lat="59.364661324035" lon="18.064161092842">
        <ele>10.6</ele>
        <time>2019-08-07T17:06:26Z</time>
      </trkpt>
      <trkpt lat="59.364613631024" lon="18.064517323592">
        <ele>10.6</ele>
        <time>2019-08-07T17:06:33Z</time>
      </trkpt>
      <trkpt lat="59.36454020558" lon="18.064886630106">
        <ele>5.4</ele>
        <time>2019-08-07T17:06:40Z</time>
      </trkpt>
      <trkpt lat="59.364489327447" lon="18.065239927191">
        <ele>3.4</ele>
        <time>2019-08-07T17:06:47Z</time>
      </trkpt>
      <trkpt lat="59.364471054905" lon="18.06559959452">
        <ele>3</ele>
        <time>2019-08-07T17:06:54Z</time>
      </trkpt>
      <trkpt lat="59.364452614725" lon="18.065981976798">
        <ele>0</ele>
        <time>2019-08-07T17:07:01Z</time>
      </trkpt>
      <trkpt lat="59.364507767627" lon="18.06636989113">
        <ele>22.4</ele>
        <time>2019-08-07T17:07:10Z</time>
      </trkpt>
      <trkpt lat="59.364531320766" lon="18.06672696007">
        <ele>25.4</ele>
        <time>2019-08-07T17:07:17Z</time>
      </trkpt>
      <trkpt lat="59.364545486177" lon="18.067101295724">
        <ele>22.4</ele>
        <time>2019-08-07T17:07:24Z</time>
      </trkpt>
      <trkpt lat="59.364571134791" lon="18.067499268336">
        <ele>22.6</ele>
        <time>2019-08-07T17:07:32Z</time>
      </trkpt>
      <trkpt lat="59.364593430645" lon="18.068085917517">
        <ele>22.6</ele>
        <time>2019-08-07T17:07:43Z</time>
      </trkpt>
      <trkpt lat="59.364599297975" lon="18.068472658383">
        <ele>23</ele>
        <time>2019-08-07T17:07:50Z</time>
      </trkpt>
      <trkpt lat="59.364581360709" lon="18.068844479467">
        <ele>23</ele>
        <time>2019-08-07T17:07:57Z</time>
      </trkpt>
      <trkpt lat="59.36457540956" lon="18.069245134287">
        <ele>21.4</ele>
        <time>2019-08-07T17:08:05Z</time>
      </trkpt>
      <trkpt lat="59.364546408186" lon="18.069597341725">
        <ele>20.8</ele>
        <time>2019-08-07T17:08:12Z</time>
      </trkpt>
      <trkpt lat="59.364507683808" lon="18.069976119786">
        <ele>21.2</ele>
        <time>2019-08-07T17:08:20Z</time>
      </trkpt>
      <trkpt lat="59.364507935265" lon="18.070331931441">
        <ele>21.6</ele>
        <time>2019-08-07T17:08:27Z</time>
      </trkpt>
      <trkpt lat="59.364478347158" lon="18.07072847913">
        <ele>23.6</ele>
        <time>2019-08-07T17:08:35Z</time>
      </trkpt>
      <trkpt lat="59.3645050016" lon="18.071082111491">
        <ele>26</ele>
        <time>2019-08-07T17:08:42Z</time>
      </trkpt>
      <trkpt lat="59.364557975208" lon="18.071254275717">
        <ele>28</ele>
        <time>2019-08-07T17:08:46Z</time>
      </trkpt>
      <trkpt lat="59.364502654668" lon="18.071452507652">
        <ele>29.4</ele>
        <time>2019-08-07T17:08:50Z</time>
      </trkpt>
      <trkpt lat="59.364392516502" lon="18.071753250224">
        <ele>33.6</ele>
        <time>2019-08-07T17:08:57Z</time>
      </trkpt>
      <trkpt lat="59.364270559857" lon="18.072065811275">
        <ele>37.6</ele>
        <time>2019-08-07T17:09:05Z</time>
      </trkpt>
      <trkpt lat="59.364133264335" lon="18.072360854155">
        <ele>42.6</ele>
        <time>2019-08-07T17:09:13Z</time>
      </trkpt>
      <trkpt lat="59.364009715129" lon="18.072664781849">
        <ele>47.6</ele>
        <time>2019-08-07T17:09:21Z</time>
      </trkpt>
      <trkpt lat="59.363872503426" lon="18.072879693765">
        <ele>51.8</ele>
        <time>2019-08-07T17:09:28Z</time>
      </trkpt>
      <trkpt lat="59.363789774073" lon="18.073207677512">
        <ele>54.2</ele>
        <time>2019-08-07T17:09:35Z</time>
      </trkpt>
      <trkpt lat="59.363703189046" lon="18.073564997909">
        <ele>54.2</ele>
        <time>2019-08-07T17:09:43Z</time>
      </trkpt>
      <trkpt lat="59.363601935694" lon="18.07391360113">
        <ele>55.2</ele>
        <time>2019-08-07T17:09:51Z</time>
      </trkpt>
      <trkpt lat="59.36348911532" lon="18.074211661494">
        <ele>56.2</ele>
        <time>2019-08-07T17:09:58Z</time>
      </trkpt>
      <trkpt lat="59.363360956069" lon="18.07449614318">
        <ele>58.4</ele>
        <time>2019-08-07T17:10:05Z</time>
      </trkpt>
      <trkpt lat="59.363241597813" lon="18.074758999564">
        <ele>59.8</ele>
        <time>2019-08-07T17:10:12Z</time>
      </trkpt>
      <trkpt lat="59.363077899306" lon="18.074951028893">
        <ele>62.8</ele>
        <time>2019-08-07T17:10:19Z</time>
      </trkpt>
      <trkpt lat="59.362916296274" lon="18.075173065424">
        <ele>64.8</ele>
        <time>2019-08-07T17:10:26Z</time>
      </trkpt>
      <trkpt lat="59.362809678506" lon="18.075492415814">
        <ele>61.6</ele>
        <time>2019-08-07T17:10:33Z</time>
      </trkpt>
      <trkpt lat="59.362749245007" lon="18.0758607165">
        <ele>61.4</ele>
        <time>2019-08-07T17:10:41Z</time>
      </trkpt>
      <trkpt lat="59.362729044628" lon="18.076237399086">
        <ele>65.4</ele>
        <time>2019-08-07T17:10:49Z</time>
      </trkpt>
      <trkpt lat="59.362747149532" lon="18.076589857981">
        <ele>68</ele>
        <time>2019-08-07T17:10:56Z</time>
      </trkpt>
      <trkpt lat="59.362762236952" lon="18.076961427608">
        <ele>71.2</ele>
        <time>2019-08-07T17:11:04Z</time>
      </trkpt>
      <trkpt lat="59.362794758724" lon="18.077316736349">
        <ele>70.6</ele>
        <time>2019-08-07T17:11:11Z</time>
      </trkpt>
      <trkpt lat="59.362777827286" lon="18.07767623604">
        <ele>63.6</ele>
        <time>2019-08-07T17:11:18Z</time>
      </trkpt>
      <trkpt lat="59.362814875284" lon="18.078040261957">
        <ele>61</ele>
        <time>2019-08-07T17:11:25Z</time>
      </trkpt>
      <trkpt lat="59.362817054578" lon="18.078422308959">
        <ele>58.6</ele>
        <time>2019-08-07T17:11:32Z</time>
      </trkpt>
      <trkpt lat="59.362817892768" lon="18.078788095075">
        <ele>56.6</ele>
        <time>2019-08-07T17:11:39Z</time>
      </trkpt>
      <trkpt lat="59.362816467845" lon="18.078852719524">
        <ele>56.6</ele>
        <time>2019-08-07T17:11:40Z</time>
      </trkpt>
      <trkpt lat="59.362811690162" lon="18.079214901423">
        <ele>55</ele>
        <time>2019-08-07T17:11:46Z</time>
      </trkpt>
      <trkpt lat="59.362836835862" lon="18.079597199882">
        <ele>51</ele>
        <time>2019-08-07T17:11:53Z</time>
      </trkpt>
      <trkpt lat="59.3628705311" lon="18.07998964044">
        <ele>49.8</ele>
        <time>2019-08-07T17:12:00Z</time>
      </trkpt>
      <trkpt lat="59.362886205253" lon="18.080102460814">
        <ele>49.8</ele>
        <time>2019-08-07T17:12:03Z</time>
      </trkpt>
      <trkpt lat="59.362957032308" lon="18.080158368087">
        <ele>49.6</ele>
        <time>2019-08-07T17:12:08Z</time>
      </trkpt>
      <trkpt lat="59.363025512431" lon="18.080157613716">
        <ele>48.6</ele>
        <time>2019-08-07T17:12:13Z</time>
      </trkpt>
      <trkpt lat="59.362987374786" lon="18.080297591446">
        <ele>47.6</ele>
        <time>2019-08-07T17:12:17Z</time>
      </trkpt>
      <trkpt lat="59.36298284856" lon="18.080649547427">
        <ele>48.6</ele>
        <time>2019-08-07T17:12:25Z</time>
      </trkpt>
      <trkpt lat="59.363007658984" lon="18.08072724764">
        <ele>48.6</ele>
        <time>2019-08-07T17:12:27Z</time>
      </trkpt>
      <trkpt lat="59.363059794402" lon="18.080887593387">
        <ele>48.8</ele>
        <time>2019-08-07T17:12:31Z</time>
      </trkpt>
      <trkpt lat="59.363171357491" lon="18.081170901607">
        <ele>47.4</ele>
        <time>2019-08-07T17:12:38Z</time>
      </trkpt>
      <trkpt lat="59.363356765119" lon="18.081268131647">
        <ele>46.2</ele>
        <time>2019-08-07T17:12:46Z</time>
      </trkpt>
      <trkpt lat="59.363560864384" lon="18.081293444985">
        <ele>44.4</ele>
        <time>2019-08-07T17:12:54Z</time>
      </trkpt>
      <trkpt lat="59.363744847089" lon="18.081347843516">
        <ele>44</ele>
        <time>2019-08-07T17:13:02Z</time>
      </trkpt>
      <trkpt lat="59.363924806482" lon="18.081468291419">
        <ele>39.2</ele>
        <time>2019-08-07T17:13:09Z</time>
      </trkpt>
      <trkpt lat="59.364123122236" lon="18.08156124669">
        <ele>35.8</ele>
        <time>2019-08-07T17:13:17Z</time>
      </trkpt>
      <trkpt lat="59.364486729058" lon="18.08181857102">
        <ele>28.4</ele>
        <time>2019-08-07T17:13:31Z</time>
      </trkpt>
      <trkpt lat="59.364653696506" lon="18.081959554578">
        <ele>26.2</ele>
        <time>2019-08-07T17:13:38Z</time>
      </trkpt>
      <trkpt lat="59.364819490488" lon="18.08214127417">
        <ele>23.8</ele>
        <time>2019-08-07T17:13:48Z</time>
      </trkpt>
      <trkpt lat="59.364962401883" lon="18.082396503025">
        <ele>21.8</ele>
        <time>2019-08-07T17:13:58Z</time>
      </trkpt>
      <trkpt lat="59.365027864522" lon="18.082514939272">
        <ele>23</ele>
        <time>2019-08-07T17:14:04Z</time>
      </trkpt>
      <trkpt lat="59.365085112899" lon="18.082601021385">
        <ele>24</ele>
        <time>2019-08-07T17:14:09Z</time>
      </trkpt>
      <trkpt lat="59.365260629885" lon="18.082613091321">
        <ele>25</ele>
        <time>2019-08-07T17:14:17Z</time>
      </trkpt>
      <trkpt lat="59.365456095793" lon="18.082535810203">
        <ele>25.6</ele>
        <time>2019-08-07T17:14:26Z</time>
      </trkpt>
      <trkpt lat="59.365628427657" lon="18.082389462229">
        <ele>32.6</ele>
        <time>2019-08-07T17:14:34Z</time>
      </trkpt>
      <trkpt lat="59.365786175015" lon="18.082215621623">
        <ele>35.4</ele>
        <time>2019-08-07T17:14:41Z</time>
      </trkpt>
      <trkpt lat="59.365914418085" lon="18.081959051664">
        <ele>34.6</ele>
        <time>2019-08-07T17:14:49Z</time>
      </trkpt>
      <trkpt lat="59.365995471058" lon="18.08162830189">
        <ele>37.4</ele>
        <time>2019-08-07T17:14:59Z</time>
      </trkpt>
      <trkpt lat="59.366005613157" lon="18.081566527287">
        <ele>38.8</ele>
        <time>2019-08-07T17:15:01Z</time>
      </trkpt>
      <trkpt lat="59.366082223723" lon="18.081216415324">
        <ele>41.4</ele>
        <time>2019-08-07T17:15:09Z</time>
      </trkpt>
      <trkpt lat="59.366167383827" lon="18.080879630582">
        <ele>41.6</ele>
        <time>2019-08-07T17:15:17Z</time>
      </trkpt>
      <trkpt lat="59.366320856416" lon="18.080625156098">
        <ele>42.4</ele>
        <time>2019-08-07T17:15:25Z</time>
      </trkpt>
      <trkpt lat="59.366437364826" lon="18.080284850958">
        <ele>43.4</ele>
        <time>2019-08-07T17:15:33Z</time>
      </trkpt>
      <trkpt lat="59.366577091099" lon="18.08002568261">
        <ele>41.2</ele>
        <time>2019-08-07T17:15:40Z</time>
      </trkpt>
      <trkpt lat="59.366746908393" lon="18.079845555579">
        <ele>38.4</ele>
        <time>2019-08-07T17:15:48Z</time>
      </trkpt>
      <trkpt lat="59.366908595244" lon="18.079615472424">
        <ele>36.2</ele>
        <time>2019-08-07T17:15:55Z</time>
      </trkpt>
      <trkpt lat="59.36706734843" lon="18.079399722318">
        <ele>34.4</ele>
        <time>2019-08-07T17:16:02Z</time>
      </trkpt>
      <trkpt lat="59.367223419408" lon="18.079122700523">
        <ele>35.2</ele>
        <time>2019-08-07T17:16:09Z</time>
      </trkpt>
      <trkpt lat="59.367324086027" lon="18.07880108702">
        <ele>35.6</ele>
        <time>2019-08-07T17:16:16Z</time>
      </trkpt>
      <trkpt lat="59.367413017986" lon="18.078456088016">
        <ele>30.6</ele>
        <time>2019-08-07T17:16:23Z</time>
      </trkpt>
      <trkpt lat="59.367491975484" lon="18.078090218081">
        <ele>26</ele>
        <time>2019-08-07T17:16:30Z</time>
      </trkpt>
      <trkpt lat="59.367590965723" lon="18.077743458878">
        <ele>21.6</ele>
        <time>2019-08-07T17:16:37Z</time>
      </trkpt>
      <trkpt lat="59.367760363922" lon="18.077510358239">
        <ele>17.6</ele>
        <time>2019-08-07T17:16:44Z</time>
      </trkpt>
      <trkpt lat="59.367893217037" lon="18.077248507683">
        <ele>14.8</ele>
        <time>2019-08-07T17:16:50Z</time>
      </trkpt>
      <trkpt lat="59.368038559183" lon="18.076955644097">
        <ele>12.6</ele>
        <time>2019-08-07T17:16:56Z</time>
      </trkpt>
      <trkpt lat="59.368148362073" lon="18.076650459118">
        <ele>14.4</ele>
        <time>2019-08-07T17:17:04Z</time>
      </trkpt>
      <trkpt lat="59.368287501613" lon="18.076400259403">
        <ele>10.6</ele>
        <time>2019-08-07T17:17:11Z</time>
      </trkpt>
      <trkpt lat="59.368466706635" lon="18.076220048553">
        <ele>6.8</ele>
        <time>2019-08-07T17:17:18Z</time>
      </trkpt>
      <trkpt lat="59.368669548615" lon="18.076284589183">
        <ele>4.4</ele>
        <time>2019-08-07T17:17:25Z</time>
      </trkpt>
      <trkpt lat="59.368846574343" lon="18.076318619697">
        <ele>4.2</ele>
        <time>2019-08-07T17:17:36Z</time>
      </trkpt>
      <trkpt lat="59.368944474935" lon="18.076229939195">
        <ele>4.8</ele>
        <time>2019-08-07T17:17:42Z</time>
      </trkpt>
      <trkpt lat="59.369018487112" lon="18.076086524886">
        <ele>13.4</ele>
        <time>2019-08-07T17:17:46Z</time>
      </trkpt>
      <trkpt lat="59.369134073513" lon="18.075796427327">
        <ele>8.4</ele>
        <time>2019-08-07T17:17:55Z</time>
      </trkpt>
      <trkpt lat="59.36931285944" lon="18.075620826522">
        <ele>9.4</ele>
        <time>2019-08-07T17:18:03Z</time>
      </trkpt>
      <trkpt lat="59.369490639539" lon="18.075488979235">
        <ele>6</ele>
        <time>2019-08-07T17:18:10Z</time>
      </trkpt>
      <trkpt lat="59.369633215658" lon="18.075231571086">
        <ele>1.4</ele>
        <time>2019-08-07T17:18:18Z</time>
      </trkpt>
      <trkpt lat="59.36977805489" lon="18.075005343605">
        <ele>0</ele>
        <time>2019-08-07T17:18:25Z</time>
      </trkpt>
      <trkpt lat="59.369940412293" lon="18.074838292338">
        <ele>0</ele>
        <time>2019-08-07T17:18:33Z</time>
      </trkpt>
      <trkpt lat="59.370101847687" lon="18.074587170614">
        <ele>0</ele>
        <time>2019-08-07T17:18:40Z</time>
      </trkpt>
      <trkpt lat="59.370248363299" lon="18.074347951188">
        <ele>0</ele>
        <time>2019-08-07T17:18:47Z</time>
      </trkpt>
      <trkpt lat="59.370398483128" lon="18.074075120343">
        <ele>0</ele>
        <time>2019-08-07T17:18:55Z</time>
      </trkpt>
      <trkpt lat="59.370525385094" lon="18.073800110204">
        <ele>0</ele>
        <time>2019-08-07T17:19:03Z</time>
      </trkpt>
      <trkpt lat="59.370533431718" lon="18.073430384595">
        <ele>0</ele>
        <time>2019-08-07T17:19:11Z</time>
      </trkpt>
      <trkpt lat="59.370531839157" lon="18.073076416958">
        <ele>0</ele>
        <time>2019-08-07T17:19:19Z</time>
      </trkpt>
      <trkpt lat="59.370539382867" lon="18.072907102578">
        <ele>0</ele>
        <time>2019-08-07T17:19:23Z</time>
      </trkpt>
      <trkpt lat="59.370468052898" lon="18.072534443304">
        <ele>0</ele>
        <time>2019-08-07T17:19:30Z</time>
      </trkpt>
      <trkpt lat="59.370354310515" lon="18.072147618619">
        <ele>0</ele>
        <time>2019-08-07T17:19:38Z</time>
      </trkpt>
      <trkpt lat="59.370357076542" lon="18.072113923381">
        <ele>0</ele>
        <time>2019-08-07T17:19:39Z</time>
      </trkpt>
      <trkpt lat="59.37037568436" lon="18.071918038378">
        <ele>0</ele>
        <time>2019-08-07T17:19:43Z</time>
      </trkpt>
      <trkpt lat="59.370403931363" lon="18.071540349964">
        <ele>0</ele>
        <time>2019-08-07T17:19:49Z</time>
      </trkpt>
      <trkpt lat="59.370451708193" lon="18.071176240228">
        <ele>0</ele>
        <time>2019-08-07T17:19:58Z</time>
      </trkpt>
      <trkpt lat="59.370452881659" lon="18.070894859845">
        <ele>0</ele>
        <time>2019-08-07T17:20:05Z</time>
      </trkpt>
      <trkpt lat="59.370515578271" lon="18.070540976027">
        <ele>0</ele>
        <time>2019-08-07T17:20:12Z</time>
      </trkpt>
      <trkpt lat="59.370643821341" lon="18.070224307845">
        <ele>0</ele>
        <time>2019-08-07T17:20:21Z</time>
      </trkpt>
      <trkpt lat="59.370654131078" lon="18.0701777883">
        <ele>0</ele>
        <time>2019-08-07T17:20:22Z</time>
      </trkpt>
      <trkpt lat="59.370635607079" lon="18.06982491031">
        <ele>0</ele>
        <time>2019-08-07T17:20:28Z</time>
      </trkpt>
      <trkpt lat="59.370562936006" lon="18.06955836589">
        <ele>0</ele>
        <time>2019-08-07T17:20:33Z</time>
      </trkpt>
      <trkpt lat="59.370479284644" lon="18.069216635827">
        <ele>0</ele>
        <time>2019-08-07T17:20:40Z</time>
      </trkpt>
      <trkpt lat="59.370355986895" lon="18.068961323153">
        <ele>0</ele>
        <time>2019-08-07T17:20:47Z</time>
      </trkpt>
      <trkpt lat="59.370245345815" lon="18.068675584182">
        <ele>0</ele>
        <time>2019-08-07T17:20:54Z</time>
      </trkpt>
      <trkpt lat="59.370144595377" lon="18.068352294299">
        <ele>0</ele>
        <time>2019-08-07T17:21:01Z</time>
      </trkpt>
      <trkpt lat="59.370053735581" lon="18.068281970158">
        <ele>0</ele>
        <time>2019-08-07T17:21:05Z</time>
      </trkpt>
      <trkpt lat="59.369891126721" lon="18.06845363147">
        <ele>0</ele>
        <time>2019-08-07T17:21:14Z</time>
      </trkpt>
      <trkpt lat="59.369871848351" lon="18.068532002235">
        <ele>0</ele>
        <time>2019-08-07T17:21:16Z</time>
      </trkpt>
      <trkpt lat="59.369842344063" lon="18.068902566034">
        <ele>0</ele>
        <time>2019-08-07T17:21:25Z</time>
      </trkpt>
      <trkpt lat="59.369832453421" lon="18.069043633411">
        <ele>0</ele>
        <time>2019-08-07T17:21:28Z</time>
      </trkpt>
      <trkpt lat="59.369798506726" lon="18.069403133102">
        <ele>0</ele>
        <time>2019-08-07T17:21:35Z</time>
      </trkpt>
      <trkpt lat="59.369715023002" lon="18.069710748832">
        <ele>0</ele>
        <time>2019-08-07T17:21:41Z</time>
      </trkpt>
      <trkpt lat="59.369569597037" lon="18.069919877237">
        <ele>0</ele>
        <time>2019-08-07T17:21:53Z</time>
      </trkpt>
      <trkpt lat="59.369398103363" lon="18.070058849139">
        <ele>0</ele>
        <time>2019-08-07T17:22:04Z</time>
      </trkpt>
      <trkpt lat="59.369238679625" lon="18.070260601472">
        <ele>0</ele>
        <time>2019-08-07T17:22:11Z</time>
      </trkpt>
      <trkpt lat="59.369105994148" lon="18.070538880552">
        <ele>0</ele>
        <time>2019-08-07T17:22:17Z</time>
      </trkpt>
      <trkpt lat="59.368973895404" lon="18.070796791615">
        <ele>0</ele>
        <time>2019-08-07T17:22:24Z</time>
      </trkpt>
      <trkpt lat="59.368828972353" lon="18.071051517556">
        <ele>0</ele>
        <time>2019-08-07T17:22:32Z</time>
      </trkpt>
      <trkpt lat="59.368671141176" lon="18.071234242976">
        <ele>0</ele>
        <time>2019-08-07T17:22:39Z</time>
      </trkpt>
      <trkpt lat="59.368516159845" lon="18.071479665008">
        <ele>0</ele>
        <time>2019-08-07T17:22:48Z</time>
      </trkpt>
      <trkpt lat="59.368404010023" lon="18.07176112921">
        <ele>0</ele>
        <time>2019-08-07T17:22:54Z</time>
      </trkpt>
      <trkpt lat="59.368309713648" lon="18.072112749915">
        <ele>0</ele>
        <time>2019-08-07T17:23:02Z</time>
      </trkpt>
      <trkpt lat="59.368205442812" lon="18.072470321769">
        <ele>0</ele>
        <time>2019-08-07T17:23:09Z</time>
      </trkpt>
      <trkpt lat="59.368157498344" lon="18.072825211415">
        <ele>0</ele>
        <time>2019-08-07T17:23:16Z</time>
      </trkpt>
      <trkpt lat="59.368084743452" lon="18.073176748301">
        <ele>0</ele>
        <time>2019-08-07T17:23:24Z</time>
      </trkpt>
      <trkpt lat="59.368001678823" lon="18.073562231882">
        <ele>0</ele>
        <time>2019-08-07T17:23:31Z</time>
      </trkpt>
      <trkpt lat="59.367892211209" lon="18.073843360808">
        <ele>0</ele>
        <time>2019-08-07T17:23:38Z</time>
      </trkpt>
      <trkpt lat="59.367713844377" lon="18.073911002741">
        <ele>0</ele>
        <time>2019-08-07T17:23:45Z</time>
      </trkpt>
      <trkpt lat="59.367547463662" lon="18.074098086749">
        <ele>0</ele>
        <time>2019-08-07T17:23:52Z</time>
      </trkpt>
      <trkpt lat="59.367403714077" lon="18.074364631169">
        <ele>0</ele>
        <time>2019-08-07T17:23:59Z</time>
      </trkpt>
      <trkpt lat="59.367245379986" lon="18.074643916077">
        <ele>0.6</ele>
        <time>2019-08-07T17:24:06Z</time>
      </trkpt>
      <trkpt lat="59.367206990884" lon="18.074907610651">
        <ele>3</ele>
        <time>2019-08-07T17:24:11Z</time>
      </trkpt>
      <trkpt lat="59.367280583966" lon="18.075088659691">
        <ele>3.4</ele>
        <time>2019-08-07T17:24:16Z</time>
      </trkpt>
      <trkpt lat="59.367357948903" lon="18.075393677032">
        <ele>0.2</ele>
        <time>2019-08-07T17:24:24Z</time>
      </trkpt>
      <trkpt lat="59.367384938621" lon="18.075504904845">
        <ele>0</ele>
        <time>2019-08-07T17:24:27Z</time>
      </trkpt>
      <trkpt lat="59.367422154257" lon="18.075769521428">
        <ele>0</ele>
        <time>2019-08-07T17:24:33Z</time>
      </trkpt>
      <trkpt lat="59.367422657171" lon="18.076158357769">
        <ele>0</ele>
        <time>2019-08-07T17:24:41Z</time>
      </trkpt>
      <trkpt lat="59.36739088977" lon="18.076516432537">
        <ele>0</ele>
        <time>2019-08-07T17:24:48Z</time>
      </trkpt>
      <trkpt lat="59.367280583966" lon="18.076857156772">
        <ele>0</ele>
        <time>2019-08-07T17:24:55Z</time>
      </trkpt>
      <trkpt lat="59.367131386146" lon="18.077131077264">
        <ele>0</ele>
        <time>2019-08-07T17:25:03Z</time>
      </trkpt>
      <trkpt lat="59.366945475604" lon="18.077357556202">
        <ele>0</ele>
        <time>2019-08-07T17:25:09Z</time>
      </trkpt>
      <trkpt lat="59.366783537296" lon="18.077597697637">
        <ele>0</ele>
        <time>2019-08-07T17:25:16Z</time>
      </trkpt>
      <trkpt lat="59.366498887972" lon="18.077935404388">
        <ele>0</ele>
        <time>2019-08-07T17:25:29Z</time>
      </trkpt>
      <trkpt lat="59.366323706262" lon="18.078102623293">
        <ele>0</ele>
        <time>2019-08-07T17:25:37Z</time>
      </trkpt>
      <trkpt lat="59.366140058833" lon="18.078199601876">
        <ele>0</ele>
        <time>2019-08-07T17:25:44Z</time>
      </trkpt>
      <trkpt lat="59.365960769992" lon="18.07839707944">
        <ele>0</ele>
        <time>2019-08-07T17:25:51Z</time>
      </trkpt>
      <trkpt lat="59.365857085889" lon="18.078555832626">
        <ele>0</ele>
        <time>2019-08-07T17:25:55Z</time>
      </trkpt>
      <trkpt lat="59.365698081246" lon="18.078777114786">
        <ele>0</ele>
        <time>2019-08-07T17:26:02Z</time>
      </trkpt>
      <trkpt lat="59.365520636423" lon="18.078924720045">
        <ele>0</ele>
        <time>2019-08-07T17:26:10Z</time>
      </trkpt>
      <trkpt lat="59.365337911003" lon="18.079002923172">
        <ele>0</ele>
        <time>2019-08-07T17:26:18Z</time>
      </trkpt>
      <trkpt lat="59.36515711342" lon="18.078972748332">
        <ele>0</ele>
        <time>2019-08-07T17:26:25Z</time>
      </trkpt>
      <trkpt lat="59.364969191222" lon="18.078884654563">
        <ele>0</ele>
        <time>2019-08-07T17:26:32Z</time>
      </trkpt>
      <trkpt lat="59.364790572933" lon="18.078680052384">
        <ele>0</ele>
        <time>2019-08-07T17:26:39Z</time>
      </trkpt>
      <trkpt lat="59.364670711763" lon="18.078385680056">
        <ele>0</ele>
        <time>2019-08-07T17:26:46Z</time>
      </trkpt>
      <trkpt lat="59.364606757866" lon="18.078048308581">
        <ele>0</ele>
        <time>2019-08-07T17:26:53Z</time>
      </trkpt>
      <trkpt lat="59.364576834483" lon="18.077686964872">
        <ele>0</ele>
        <time>2019-08-07T17:27:01Z</time>
      </trkpt>
      <trkpt lat="59.364538026286" lon="18.07732838719">
        <ele>0</ele>
        <time>2019-08-07T17:27:09Z</time>
      </trkpt>
      <trkpt lat="59.364465690489" lon="18.077002834194">
        <ele>0</ele>
        <time>2019-08-07T17:27:16Z</time>
      </trkpt>
      <trkpt lat="59.364356390513" lon="18.076666300909">
        <ele>0</ele>
        <time>2019-08-07T17:27:24Z</time>
      </trkpt>
      <trkpt lat="59.364185818848" lon="18.076703768002">
        <ele>0</ele>
        <time>2019-08-07T17:27:34Z</time>
      </trkpt>
      <trkpt lat="59.364150279592" lon="18.076755232868">
        <ele>0</ele>
        <time>2019-08-07T17:27:37Z</time>
      </trkpt>
      <trkpt lat="59.364098395631" lon="18.076823042439">
        <ele>0</ele>
        <time>2019-08-07T17:27:42Z</time>
      </trkpt>
      <trkpt lat="59.364044416195" lon="18.076997805054">
        <ele>0</ele>
        <time>2019-08-07T17:27:50Z</time>
      </trkpt>
      <trkpt lat="59.363996136451" lon="18.077382115169">
        <ele>0</ele>
        <time>2019-08-07T17:27:59Z</time>
      </trkpt>
      <trkpt lat="59.363946012689" lon="18.077775310098">
        <ele>0</ele>
        <time>2019-08-07T17:28:07Z</time>
      </trkpt>
      <trkpt lat="59.363871916693" lon="18.078113100668">
        <ele>0</ele>
        <time>2019-08-07T17:28:14Z</time>
      </trkpt>
      <trkpt lat="59.363790360806" lon="18.078468074133">
        <ele>0</ele>
        <time>2019-08-07T17:28:22Z</time>
      </trkpt>
      <trkpt lat="59.363661531003" lon="18.078712155061">
        <ele>0</ele>
        <time>2019-08-07T17:28:29Z</time>
      </trkpt>
      <trkpt lat="59.363483918542" lon="18.078901502182">
        <ele>0</ele>
        <time>2019-08-07T17:28:38Z</time>
      </trkpt>
      <trkpt lat="59.363343773174" lon="18.079169471525">
        <ele>0</ele>
        <time>2019-08-07T17:28:46Z</time>
      </trkpt>
      <trkpt lat="59.363271772653" lon="18.079378935206">
        <ele>0</ele>
        <time>2019-08-07T17:28:52Z</time>
      </trkpt>
      <trkpt lat="59.363098686418" lon="18.079585465222">
        <ele>0</ele>
        <time>2019-08-07T17:29:00Z</time>
      </trkpt>
      <trkpt lat="59.363078486039" lon="18.079628799645">
        <ele>0</ele>
        <time>2019-08-07T17:29:01Z</time>
      </trkpt>
      <trkpt lat="59.362944710915" lon="18.079918059014">
        <ele>0</ele>
        <time>2019-08-07T17:29:06Z</time>
      </trkpt>
      <trkpt lat="59.362821245528" lon="18.080178903742">
        <ele>0</ele>
        <time>2019-08-07T17:29:12Z</time>
      </trkpt>
      <trkpt lat="59.362617565358" lon="18.08020337889">
        <ele>0</ele>
        <time>2019-08-07T17:29:19Z</time>
      </trkpt>
      <trkpt lat="59.362435845766" lon="18.080234978653">
        <ele>0</ele>
        <time>2019-08-07T17:29:25Z</time>
      </trkpt>
      <trkpt lat="59.362258736219" lon="18.080279067447">
        <ele>0</ele>
        <time>2019-08-07T17:29:31Z</time>
      </trkpt>
      <trkpt lat="59.362071233116" lon="18.080139005898">
        <ele>0</ele>
        <time>2019-08-07T17:29:39Z</time>
      </trkpt>
      <trkpt lat="59.361887837144" lon="18.080019228547">
        <ele>0</ele>
        <time>2019-08-07T17:29:48Z</time>
      </trkpt>
      <trkpt lat="59.361687258277" lon="18.079981426178">
        <ele>0</ele>
        <time>2019-08-07T17:29:56Z</time>
      </trkpt>
      <trkpt lat="59.361495145129" lon="18.079989388983">
        <ele>0</ele>
        <time>2019-08-07T17:30:03Z</time>
      </trkpt>
      <trkpt lat="59.361307809664" lon="18.079994921037">
        <ele>0</ele>
        <time>2019-08-07T17:30:10Z</time>
      </trkpt>
      <trkpt lat="59.361117289077" lon="18.080051498862">
        <ele>0</ele>
        <time>2019-08-07T17:30:16Z</time>
      </trkpt>
      <trkpt lat="59.360925175929" lon="18.080075052001">
        <ele>0</ele>
        <time>2019-08-07T17:30:22Z</time>
      </trkpt>
      <trkpt lat="59.360872956692" lon="18.080033813053">
        <ele>0</ele>
        <time>2019-08-07T17:30:24Z</time>
      </trkpt>
      <trkpt lat="59.360873375787" lon="18.079658890666">
        <ele>0</ele>
        <time>2019-08-07T17:30:32Z</time>
      </trkpt>
      <trkpt lat="59.360945460127" lon="18.079311041816">
        <ele>0</ele>
        <time>2019-08-07T17:30:39Z</time>
      </trkpt>
      <trkpt lat="59.360974712958" lon="18.078926312606">
        <ele>0</ele>
        <time>2019-08-07T17:30:46Z</time>
      </trkpt>
      <trkpt lat="59.361023747073" lon="18.078567651105">
        <ele>0</ele>
        <time>2019-08-07T17:30:53Z</time>
      </trkpt>
      <trkpt lat="59.361051826438" lon="18.078179401497">
        <ele>0</ele>
        <time>2019-08-07T17:31:00Z</time>
      </trkpt>
      <trkpt lat="59.361045288556" lon="18.077780087781">
        <ele>0</ele>
        <time>2019-08-07T17:31:08Z</time>
      </trkpt>
      <trkpt lat="59.361036990475" lon="18.077204167432">
        <ele>0</ele>
        <time>2019-08-07T17:31:18Z</time>
      </trkpt>
      <trkpt lat="59.361099016535" lon="18.076858246419">
        <ele>0</ele>
        <time>2019-08-07T17:31:24Z</time>
      </trkpt>
      <trkpt lat="59.361213597108" lon="18.076602011736">
        <ele>0</ele>
        <time>2019-08-07T17:31:30Z</time>
      </trkpt>
      <trkpt lat="59.361245699785" lon="18.076389530571">
        <ele>0</ele>
        <time>2019-08-07T17:31:34Z</time>
      </trkpt>
      <trkpt lat="59.361355251218" lon="18.076095661157">
        <ele>0</ele>
        <time>2019-08-07T17:31:41Z</time>
      </trkpt>
      <trkpt lat="59.361476537311" lon="18.075815957154">
        <ele>0</ele>
        <time>2019-08-07T17:31:48Z</time>
      </trkpt>
      <trkpt lat="59.361583741812" lon="18.075528290346">
        <ele>0</ele>
        <time>2019-08-07T17:31:54Z</time>
      </trkpt>
      <trkpt lat="59.361671500305" lon="18.075177843107">
        <ele>0</ele>
        <time>2019-08-07T17:32:01Z</time>
      </trkpt>
      <trkpt lat="59.36178675143" lon="18.074842483288">
        <ele>0</ele>
        <time>2019-08-07T17:32:08Z</time>
      </trkpt>
      <trkpt lat="59.361904014211" lon="18.074576106506">
        <ele>0</ele>
        <time>2019-08-07T17:32:14Z</time>
      </trkpt>
      <trkpt lat="59.362092523142" lon="18.074430177627">
        <ele>0</ele>
        <time>2019-08-07T17:32:21Z</time>
      </trkpt>
      <trkpt lat="59.362278266046" lon="18.074328588999">
        <ele>0</ele>
        <time>2019-08-07T17:32:28Z</time>
      </trkpt>
      <trkpt lat="59.362435845766" lon="18.07418517469">
        <ele>0</ele>
        <time>2019-08-07T17:32:39Z</time>
      </trkpt>
      <trkpt lat="59.36261739772" lon="18.07415835261">
        <ele>0</ele>
        <time>2019-08-07T17:32:46Z</time>
      </trkpt>
      <trkpt lat="59.3628202397" lon="18.074168494709">
        <ele>0</ele>
        <time>2019-08-07T17:32:53Z</time>
      </trkpt>
      <trkpt lat="59.363011179382" lon="18.074161956827">
        <ele>0</ele>
        <time>2019-08-07T17:33:00Z</time>
      </trkpt>
      <trkpt lat="59.363199688313" lon="18.07411476673">
        <ele>0</ele>
        <time>2019-08-07T17:33:07Z</time>
      </trkpt>
      <trkpt lat="59.363377552231" lon="18.074179977912">
        <ele>0</ele>
        <time>2019-08-07T17:33:15Z</time>
      </trkpt>
      <trkpt lat="59.363535634865" lon="18.074386843204">
        <ele>0</ele>
        <time>2019-08-07T17:33:23Z</time>
      </trkpt>
      <trkpt lat="59.363692292576" lon="18.074611561943">
        <ele>0</ele>
        <time>2019-08-07T17:33:30Z</time>
      </trkpt>
      <trkpt lat="59.363833276134" lon="18.074889002833">
        <ele>0</ele>
        <time>2019-08-07T17:33:37Z</time>
      </trkpt>
      <trkpt lat="59.363956490064" lon="18.075203743178">
        <ele>0</ele>
        <time>2019-08-07T17:33:44Z</time>
      </trkpt>
      <trkpt lat="59.364045170566" lon="18.075521920102">
        <ele>0</ele>
        <time>2019-08-07T17:33:51Z</time>
      </trkpt>
      <trkpt lat="59.364137455285" lon="18.075828278547">
        <ele>0</ele>
        <time>2019-08-07T17:33:58Z</time>
      </trkpt>
      <trkpt lat="59.364216915697" lon="18.076170930619">
        <ele>0</ele>
        <time>2019-08-07T17:34:06Z</time>
      </trkpt>
      <trkpt lat="59.364314983927" lon="18.076470164449">
        <ele>0</ele>
        <time>2019-08-07T17:34:13Z</time>
      </trkpt>
      <trkpt lat="59.364395450167" lon="18.076784737156">
        <ele>0</ele>
        <time>2019-08-07T17:34:20Z</time>
      </trkpt>
      <trkpt lat="59.364493099302" lon="18.077135854947">
        <ele>0</ele>
        <time>2019-08-07T17:34:27Z</time>
      </trkpt>
      <trkpt lat="59.364549844765" lon="18.077504071814">
        <ele>0</ele>
        <time>2019-08-07T17:34:34Z</time>
      </trkpt>
      <trkpt lat="59.364590664618" lon="18.077865834618">
        <ele>0</ele>
        <time>2019-08-07T17:34:41Z</time>
      </trkpt>
      <trkpt lat="59.364630478643" lon="18.078225837223">
        <ele>0</ele>
        <time>2019-08-07T17:34:48Z</time>
      </trkpt>
      <trkpt lat="59.36470281444" lon="18.078572847883">
        <ele>0</ele>
        <time>2019-08-07T17:34:55Z</time>
      </trkpt>
      <trkpt lat="59.364819658126" lon="18.078866884935">
        <ele>0</ele>
        <time>2019-08-07T17:35:02Z</time>
      </trkpt>
      <trkpt lat="59.364988385773" lon="18.079051202916">
        <ele>0</ele>
        <time>2019-08-07T17:35:10Z</time>
      </trkpt>
      <trkpt lat="59.365184438414" lon="18.079079282281">
        <ele>0</ele>
        <time>2019-08-07T17:35:18Z</time>
      </trkpt>
      <trkpt lat="59.365376886838" lon="18.07901314909">
        <ele>0</ele>
        <time>2019-08-07T17:35:26Z</time>
      </trkpt>
      <trkpt lat="59.365561623914" lon="18.078864202727">
        <ele>0</ele>
        <time>2019-08-07T17:35:34Z</time>
      </trkpt>
      <trkpt lat="59.365723143127" lon="18.078682231678">
        <ele>0</ele>
        <time>2019-08-07T17:35:42Z</time>
      </trkpt>
      <trkpt lat="59.365873430594" lon="18.078472181264">
        <ele>0</ele>
        <time>2019-08-07T17:35:49Z</time>
      </trkpt>
      <trkpt lat="59.36602380188" lon="18.078270596569">
        <ele>0</ele>
        <time>2019-08-07T17:35:56Z</time>
      </trkpt>
      <trkpt lat="59.366201749617" lon="18.078160542222">
        <ele>0</ele>
        <time>2019-08-07T17:36:03Z</time>
      </trkpt>
      <trkpt lat="59.366391180557" lon="18.078052667169">
        <ele>0</ele>
        <time>2019-08-07T17:36:11Z</time>
      </trkpt>
      <trkpt lat="59.366522273473" lon="18.077799366151">
        <ele>0</ele>
        <time>2019-08-07T17:36:18Z</time>
      </trkpt>
      <trkpt lat="59.366651187095" lon="18.077518572501">
        <ele>0</ele>
        <time>2019-08-07T17:36:25Z</time>
      </trkpt>
      <trkpt lat="59.366813712136" lon="18.077314557055">
        <ele>0</ele>
        <time>2019-08-07T17:36:32Z</time>
      </trkpt>
      <trkpt lat="59.366979170842" lon="18.077154630403">
        <ele>0</ele>
        <time>2019-08-07T17:36:39Z</time>
      </trkpt>
      <trkpt lat="59.367113700337" lon="18.076856318582">
        <ele>0</ele>
        <time>2019-08-07T17:36:47Z</time>
      </trkpt>
      <trkpt lat="59.367306064942" lon="18.076545769187">
        <ele>0</ele>
        <time>2019-08-07T17:36:57Z</time>
      </trkpt>
      <trkpt lat="59.367406480104" lon="18.076219126544">
        <ele>0</ele>
        <time>2019-08-07T17:37:06Z</time>
      </trkpt>
      <trkpt lat="59.367393655797" lon="18.076005639551">
        <ele>0</ele>
        <time>2019-08-07T17:37:10Z</time>
      </trkpt>
      <trkpt lat="59.367354260867" lon="18.075656281959">
        <ele>0</ele>
        <time>2019-08-07T17:37:15Z</time>
      </trkpt>
      <trkpt lat="59.367237417181" lon="18.075323688167">
        <ele>0</ele>
        <time>2019-08-07T17:37:22Z</time>
      </trkpt>
      <trkpt lat="59.36709584689" lon="18.075074913375">
        <ele>0</ele>
        <time>2019-08-07T17:37:29Z</time>
      </trkpt>
      <trkpt lat="59.366947654898" lon="18.074870395015">
        <ele>0</ele>
        <time>2019-08-07T17:37:35Z</time>
      </trkpt>
      <trkpt lat="59.366787895884" lon="18.074653890538">
        <ele>0</ele>
        <time>2019-08-07T17:37:43Z</time>
      </trkpt>
      <trkpt lat="59.366606008654" lon="18.074536711576">
        <ele>0</ele>
        <time>2019-08-07T17:37:51Z</time>
      </trkpt>
      <trkpt lat="59.366476173023" lon="18.074279471065">
        <ele>0</ele>
        <time>2019-08-07T17:37:58Z</time>
      </trkpt>
      <trkpt lat="59.36633560856" lon="18.074005885849">
        <ele>0</ele>
        <time>2019-08-07T17:38:05Z</time>
      </trkpt>
      <trkpt lat="59.366212059354" lon="18.073735737212">
        <ele>0</ele>
        <time>2019-08-07T17:38:12Z</time>
      </trkpt>
      <trkpt lat="59.366072835995" lon="18.07344589111">
        <ele>0</ele>
        <time>2019-08-07T17:38:20Z</time>
      </trkpt>
      <trkpt lat="59.365930343695" lon="18.073148836574">
        <ele>0</ele>
        <time>2019-08-07T17:38:27Z</time>
      </trkpt>
      <trkpt lat="59.365805537204" lon="18.072847674907">
        <ele>0</ele>
        <time>2019-08-07T17:38:34Z</time>
      </trkpt>
      <trkpt lat="59.36566421837" lon="18.072581884858">
        <ele>0</ele>
        <time>2019-08-07T17:38:41Z</time>
      </trkpt>
      <trkpt lat="59.365531365255" lon="18.072286841978">
        <ele>0</ele>
        <time>2019-08-07T17:38:49Z</time>
      </trkpt>
      <trkpt lat="59.365406391126" lon="18.072021890119">
        <ele>0</ele>
        <time>2019-08-07T17:38:56Z</time>
      </trkpt>
      <trkpt lat="59.365273789468" lon="18.071749897464">
        <ele>0</ele>
        <time>2019-08-07T17:39:03Z</time>
      </trkpt>
      <trkpt lat="59.365233556348" lon="18.071321414736">
        <ele>0</ele>
        <time>2019-08-07T17:39:12Z</time>
      </trkpt>
      <trkpt lat="59.365137332136" lon="18.071006842029">
        <ele>0</ele>
        <time>2019-08-07T17:39:21Z</time>
      </trkpt>
      <trkpt lat="59.364981680253" lon="18.070839455486">
        <ele>0</ele>
        <time>2019-08-07T17:39:29Z</time>
      </trkpt>
      <trkpt lat="59.364801888498" lon="18.070759073065">
        <ele>0</ele>
        <time>2019-08-07T17:39:37Z</time>
      </trkpt>
      <trkpt lat="59.36460223164" lon="18.070773573752">
        <ele>0</ele>
        <time>2019-08-07T17:39:45Z</time>
      </trkpt>
      <trkpt lat="59.36444213735" lon="18.070656227152">
        <ele>0</ele>
        <time>2019-08-07T17:39:52Z</time>
      </trkpt>
      <trkpt lat="59.364396539814" lon="18.070319274772">
        <ele>0</ele>
        <time>2019-08-07T17:39:59Z</time>
      </trkpt>
      <trkpt lat="59.364444484282" lon="18.069977544709">
        <ele>0</ele>
        <time>2019-08-07T17:40:06Z</time>
      </trkpt>
      <trkpt lat="59.364493518397" lon="18.069583763047">
        <ele>0</ele>
        <time>2019-08-07T17:40:13Z</time>
      </trkpt>
      <trkpt lat="59.364527716549" lon="18.069213450705">
        <ele>0</ele>
        <time>2019-08-07T17:40:20Z</time>
      </trkpt>
      <trkpt lat="59.36452344178" lon="18.068842048716">
        <ele>0</ele>
        <time>2019-08-07T17:40:27Z</time>
      </trkpt>
      <trkpt lat="59.364528051825" lon="18.068466707234">
        <ele>2</ele>
        <time>2019-08-07T17:40:34Z</time>
      </trkpt>
      <trkpt lat="59.364527800368" lon="18.068063286387">
        <ele>5</ele>
        <time>2019-08-07T17:40:41Z</time>
      </trkpt>
      <trkpt lat="59.364519334649" lon="18.067694566606">
        <ele>7.8</ele>
        <time>2019-08-07T17:40:48Z</time>
      </trkpt>
      <trkpt lat="59.364505420695" lon="18.067319057486">
        <ele>9.4</ele>
        <time>2019-08-07T17:40:55Z</time>
      </trkpt>
      <trkpt lat="59.364496787338" lon="18.066966011858">
        <ele>10.6</ele>
        <time>2019-08-07T17:41:02Z</time>
      </trkpt>
      <trkpt lat="59.364485136497" lon="18.066594777507">
        <ele>9.6</ele>
        <time>2019-08-07T17:41:09Z</time>
      </trkpt>
      <trkpt lat="59.364475329674" lon="18.066200912026">
        <ele>9.4</ele>
        <time>2019-08-07T17:41:16Z</time>
      </trkpt>
      <trkpt lat="59.364467366869" lon="18.065804448156">
        <ele>11.4</ele>
        <time>2019-08-07T17:41:23Z</time>
      </trkpt>
      <trkpt lat="59.36446476848" lon="18.065390801391">
        <ele>12.2</ele>
        <time>2019-08-07T17:41:30Z</time>
      </trkpt>
      <trkpt lat="59.364473401837" lon="18.065033900089">
        <ele>13.6</ele>
        <time>2019-08-07T17:41:36Z</time>
      </trkpt>
      <trkpt lat="59.364527381273" lon="18.064656379313">
        <ele>14.2</ele>
        <time>2019-08-07T17:41:43Z</time>
      </trkpt>
      <trkpt lat="59.364591418989" lon="18.064322612055">
        <ele>14.4</ele>
        <time>2019-08-07T17:41:50Z</time>
      </trkpt>
      <trkpt lat="59.364647326262" lon="18.063965543115">
        <ele>14.8</ele>
        <time>2019-08-07T17:41:57Z</time>
      </trkpt>
      <trkpt lat="59.364688397572" lon="18.063616269342">
        <ele>15.4</ele>
        <time>2019-08-07T17:42:04Z</time>
      </trkpt>
      <trkpt lat="59.364738102239" lon="18.063265486827">
        <ele>17.6</ele>
        <time>2019-08-07T17:42:11Z</time>
      </trkpt>
      <trkpt lat="59.36479585353" lon="18.062914452855">
        <ele>18.6</ele>
        <time>2019-08-07T17:42:18Z</time>
      </trkpt>
      <trkpt lat="59.364851090251" lon="18.062577249018">
        <ele>18.4</ele>
        <time>2019-08-07T17:42:25Z</time>
      </trkpt>
      <trkpt lat="59.364943626427" lon="18.062292599694">
        <ele>17.2</ele>
        <time>2019-08-07T17:42:32Z</time>
      </trkpt>
      <trkpt lat="59.365060973027" lon="18.062266531985">
        <ele>17.4</ele>
        <time>2019-08-07T17:42:36Z</time>
      </trkpt>
      <trkpt lat="59.365267083948" lon="18.062275752075">
        <ele>18.4</ele>
        <time>2019-08-07T17:42:43Z</time>
      </trkpt>
      <trkpt lat="59.365441846563" lon="18.062162764063">
        <ele>18.2</ele>
        <time>2019-08-07T17:42:50Z</time>
      </trkpt>
      <trkpt lat="59.365592469306" lon="18.061935111659">
        <ele>18</ele>
        <time>2019-08-07T17:42:57Z</time>
      </trkpt>
      <trkpt lat="59.365763879161" lon="18.061796894128">
        <ele>17.6</ele>
        <time>2019-08-07T17:43:04Z</time>
      </trkpt>
      <trkpt lat="59.365955824671" lon="18.061751296592">
        <ele>15.2</ele>
        <time>2019-08-07T17:43:11Z</time>
      </trkpt>
      <trkpt lat="59.366132850399" lon="18.061663370461">
        <ele>15.6</ele>
        <time>2019-08-07T17:43:18Z</time>
      </trkpt>
      <trkpt lat="59.36630375734" lon="18.061445273423">
        <ele>15.6</ele>
        <time>2019-08-07T17:43:25Z</time>
      </trkpt>
      <trkpt lat="59.366473993729" lon="18.061260787804">
        <ele>20.8</ele>
        <time>2019-08-07T17:43:32Z</time>
      </trkpt>
      <trkpt lat="59.366652947294" lon="18.061061214765">
        <ele>21.8</ele>
        <time>2019-08-07T17:43:40Z</time>
      </trkpt>
      <trkpt lat="59.36681086229" lon="18.060835406379">
        <ele>24.6</ele>
        <time>2019-08-07T17:43:48Z</time>
      </trkpt>
      <trkpt lat="59.366829973022" lon="18.060467105693">
        <ele>26.2</ele>
        <time>2019-08-07T17:43:55Z</time>
      </trkpt>
      <trkpt lat="59.366820501475" lon="18.060072485841">
        <ele>25.6</ele>
        <time>2019-08-07T17:44:03Z</time>
      </trkpt>
      <trkpt lat="59.366805497874" lon="18.059720110765">
        <ele>24.6</ele>
        <time>2019-08-07T17:44:10Z</time>
      </trkpt>
      <trkpt lat="59.366805330236" lon="18.059352229174">
        <ele>27</ele>
        <time>2019-08-07T17:44:17Z</time>
      </trkpt>
      <trkpt lat="59.366854364351" lon="18.058975043674">
        <ele>29.2</ele>
        <time>2019-08-07T17:44:24Z</time>
      </trkpt>
      <trkpt lat="59.36691815061" lon="18.058640438226">
        <ele>27.8</ele>
        <time>2019-08-07T17:44:30Z</time>
      </trkpt>
      <trkpt lat="59.367096852718" lon="18.058586207333">
        <ele>25.4</ele>
        <time>2019-08-07T17:44:36Z</time>
      </trkpt>
      <trkpt lat="59.367282679441" lon="18.058609425196">
        <ele>24.2</ele>
        <time>2019-08-07T17:44:42Z</time>
      </trkpt>
      <trkpt lat="59.36746548868" lon="18.058648903945">
        <ele>24.6</ele>
        <time>2019-08-07T17:44:48Z</time>
      </trkpt>
      <trkpt lat="59.367662966244" lon="18.058721994113">
        <ele>23.2</ele>
        <time>2019-08-07T17:44:55Z</time>
      </trkpt>
      <trkpt lat="59.367852564822" lon="18.058812099538">
        <ele>22.4</ele>
        <time>2019-08-07T17:45:02Z</time>
      </trkpt>
      <trkpt lat="59.368047276359" lon="18.058917040926">
        <ele>21.2</ele>
        <time>2019-08-07T17:45:09Z</time>
      </trkpt>
      <trkpt lat="59.368124138382" lon="18.058865408422">
        <ele>19.4</ele>
        <time>2019-08-07T17:45:13Z</time>
      </trkpt>
      <trkpt lat="59.367959350228" lon="18.058698524793">
        <ele>15.8</ele>
        <time>2019-08-07T17:45:19Z</time>
      </trkpt>
      <trkpt lat="59.3679331987" lon="18.058667847039">
        <ele>16</ele>
        <time>2019-08-07T17:45:20Z</time>
      </trkpt>
      <trkpt lat="59.367781402491" lon="18.05847833228">
        <ele>13.8</ele>
        <time>2019-08-07T17:45:26Z</time>
      </trkpt>
      <trkpt lat="59.367632791404" lon="18.058260905794">
        <ele>13.4</ele>
        <time>2019-08-07T17:45:32Z</time>
      </trkpt>
      <trkpt lat="59.367460124264" lon="18.058035516503">
        <ele>13.8</ele>
        <time>2019-08-07T17:45:39Z</time>
      </trkpt>
      <trkpt lat="59.367305142933" lon="18.057766457513">
        <ele>14</ele>
        <time>2019-08-07T17:45:46Z</time>
      </trkpt>
      <trkpt lat="59.367165332841" lon="18.057519359101">
        <ele>14</ele>
        <time>2019-08-07T17:45:53Z</time>
      </trkpt>
      <trkpt lat="59.36703130626" lon="18.057235464148">
        <ele>12.8</ele>
        <time>2019-08-07T17:46:00Z</time>
      </trkpt>
      <trkpt lat="59.3669189888" lon="18.056919634156">
        <ele>13.2</ele>
        <time>2019-08-07T17:46:07Z</time>
      </trkpt>
      <trkpt lat="59.36693323803" lon="18.056551752565">
        <ele>12.6</ele>
        <time>2019-08-07T17:46:13Z</time>
      </trkpt>
      <trkpt lat="59.366941955206" lon="18.056142212931">
        <ele>14</ele>
        <time>2019-08-07T17:46:20Z</time>
      </trkpt>
      <trkpt lat="59.367043795291" lon="18.055866616059">
        <ele>16.6</ele>
        <time>2019-08-07T17:46:26Z</time>
      </trkpt>
      <trkpt lat="59.367218054992" lon="18.055732924754">
        <ele>17.4</ele>
        <time>2019-08-07T17:46:32Z</time>
      </trkpt>
      <trkpt lat="59.367351746297" lon="18.055587331151">
        <ele>17.2</ele>
        <time>2019-08-07T17:46:38Z</time>
      </trkpt>
      <trkpt lat="59.36733556923" lon="18.055334952142">
        <ele>16.6</ele>
        <time>2019-08-07T17:46:43Z</time>
      </trkpt>
      <trkpt lat="59.36726599946" lon="18.054953156597">
        <ele>15.2</ele>
        <time>2019-08-07T17:46:50Z</time>
      </trkpt>
      <trkpt lat="59.367203219029" lon="18.054565074627">
        <ele>14.2</ele>
        <time>2019-08-07T17:46:57Z</time>
      </trkpt>
      <trkpt lat="59.367142114978" lon="18.054188056765">
        <ele>14</ele>
        <time>2019-08-07T17:47:04Z</time>
      </trkpt>
      <trkpt lat="59.367128787757" lon="18.053807518505">
        <ele>14.6</ele>
        <time>2019-08-07T17:47:11Z</time>
      </trkpt>
      <trkpt lat="59.367192154921" lon="18.053469979392">
        <ele>12.6</ele>
        <time>2019-08-07T17:47:17Z</time>
      </trkpt>
      <trkpt lat="59.367321739095" lon="18.053197819099">
        <ele>10.6</ele>
        <time>2019-08-07T17:47:23Z</time>
      </trkpt>
      <trkpt lat="59.367494573873" lon="18.053076449187">
        <ele>9</ele>
        <time>2019-08-07T17:47:29Z</time>
      </trkpt>
      <trkpt lat="59.367682244614" lon="18.05309966705">
        <ele>10</ele>
        <time>2019-08-07T17:47:35Z</time>
      </trkpt>
      <trkpt lat="59.367864550939" lon="18.053324972522">
        <ele>11.6</ele>
        <time>2019-08-07T17:47:42Z</time>
      </trkpt>
    </trkseg>
  </trk>
</gpx>